createdAt,value
2022-10-18T00:00:59.973Z,13.85
2022-10-18T00:04:41.580Z,13.83
2022-10-18T00:07:48.117Z,13.80
2022-10-18T00:10:54.025Z,13.81
2022-10-18T00:14:03.850Z,13.82
2022-10-18T00:17:10.121Z,13.84
2022-10-18T00:20:19.791Z,13.86
2022-10-18T00:23:25.341Z,13.80
2022-10-18T00:26:33.333Z,13.86
2022-10-18T00:29:38.985Z,13.87
2022-10-18T00:32:45.830Z,13.89
2022-10-18T00:35:54.519Z,13.90
2022-10-18T00:39:03.049Z,13.87
2022-10-18T00:42:09.125Z,13.86
2022-10-18T00:45:22.462Z,13.83
2022-10-18T00:48:28.225Z,13.82
2022-10-18T00:51:41.461Z,13.81
2022-10-18T00:54:49.557Z,13.78
2022-10-18T00:57:56.817Z,13.76
2022-10-18T01:01:02.729Z,13.68
2022-10-18T01:04:09.398Z,13.75
2022-10-18T01:07:31.314Z,13.76
2022-10-18T01:10:45.982Z,13.74
2022-10-18T01:14:06.080Z,13.77
2022-10-18T01:17:20.252Z,13.76
2022-10-18T01:20:57.528Z,13.79
2022-10-18T01:24:48.741Z,13.76
2022-10-18T01:28:01.066Z,13.73
2022-10-18T01:31:15.422Z,13.72
2022-10-18T01:34:23.068Z,13.73
2022-10-18T01:37:32.490Z,13.76
2022-10-18T01:40:39.551Z,13.78
2022-10-18T01:43:48.524Z,13.80
2022-10-18T01:46:59.983Z,13.79
2022-10-18T01:50:10.010Z,13.79
2022-10-18T01:53:26.353Z,13.78
2022-10-18T01:56:40.102Z,13.75
2022-10-18T01:59:55.970Z,13.76
2022-10-18T02:03:09.871Z,13.77
2022-10-18T02:06:24.789Z,13.78
2022-10-18T02:09:39.766Z,13.76
2022-10-18T02:12:48.360Z,13.74
2022-10-18T02:16:00.721Z,13.72
2022-10-18T02:19:17.565Z,13.69
2022-10-18T02:22:27.033Z,13.63
2022-10-18T02:25:34.841Z,13.62
2022-10-18T02:28:41.834Z,13.61
2022-10-18T02:31:49.621Z,13.61
2022-10-18T02:35:04.095Z,13.60
2022-10-18T02:38:11.225Z,13.58
2022-10-18T02:41:26.065Z,13.57
2022-10-18T02:44:31.650Z,13.55
2022-10-18T02:47:38.436Z,13.50
2022-10-18T02:50:46.825Z,13.48
2022-10-18T02:53:53.286Z,13.46
2022-10-18T02:56:59.065Z,13.47
2022-10-18T03:00:07.371Z,13.47
2022-10-18T03:03:12.956Z,13.45
2022-10-18T03:06:22.414Z,13.44
2022-10-18T03:09:28.117Z,13.41
2022-10-18T03:12:34.562Z,13.36
2022-10-18T03:15:40.363Z,13.34
2022-10-18T03:18:46.840Z,13.33
2022-10-18T03:21:55.268Z,13.36
2022-10-18T03:25:03.312Z,13.35
2022-10-18T03:28:09.199Z,13.35
2022-10-18T03:31:15.585Z,13.33
2022-10-18T03:34:21.317Z,13.31
2022-10-18T03:37:30.575Z,13.31
2022-10-18T03:40:36.202Z,13.29
2022-10-18T03:43:42.904Z,13.27
2022-10-18T03:46:48.432Z,13.26
2022-10-18T03:49:57.207Z,13.27
2022-10-18T03:53:06.116Z,13.29
2022-10-18T03:56:12.588Z,13.28
2022-10-18T03:59:18.749Z,13.27
2022-10-18T04:02:25.177Z,13.26
2022-10-18T04:05:31.644Z,13.23
2022-10-18T04:08:40.951Z,13.22
2022-10-18T04:11:46.739Z,13.22
2022-10-18T04:14:55.391Z,13.20
2022-10-18T04:18:03.335Z,13.19
2022-10-18T04:21:10.086Z,13.18
2022-10-18T04:24:19.713Z,13.16
2022-10-18T04:27:26.649Z,13.15
2022-10-18T04:30:32.200Z,13.15
2022-10-18T04:33:38.758Z,13.13
2022-10-18T04:36:44.506Z,13.15
2022-10-18T04:39:53.931Z,13.17
2022-10-18T04:42:59.867Z,13.18
2022-10-18T04:46:07.828Z,13.19
2022-10-18T04:49:13.502Z,13.19
2022-10-18T04:52:20.272Z,13.21
2022-10-18T04:55:28.741Z,13.20
2022-10-18T04:58:35.813Z,13.20
2022-10-18T05:01:41.716Z,13.18
2022-10-18T05:04:48.197Z,13.18
2022-10-18T05:07:53.962Z,13.19
2022-10-18T05:11:03.290Z,13.15
2022-10-18T05:14:10.328Z,13.20
2022-10-18T05:17:16.879Z,13.19
2022-10-18T05:20:22.446Z,13.16
2022-10-18T05:23:28.974Z,13.11
2022-10-18T05:26:37.416Z,13.09
2022-10-18T05:29:43.863Z,13.06
2022-10-18T05:32:49.438Z,13.02
2022-10-18T05:35:55.850Z,12.99
2022-10-18T05:39:05.011Z,12.96
2022-10-18T05:42:14.690Z,13.03
2022-10-18T05:45:20.794Z,13.11
2022-10-18T05:48:27.449Z,13.15
2022-10-18T05:51:32.976Z,13.12
2022-10-18T05:54:39.594Z,13.13
2022-10-18T05:57:52.406Z,13.18
2022-10-18T06:01:03.572Z,13.22
2022-10-18T06:04:10.334Z,13.24
2022-10-18T06:07:16.797Z,13.27
2022-10-18T06:10:22.429Z,13.32
2022-10-18T06:13:33.713Z,13.36
2022-10-18T06:16:39.464Z,13.39
2022-10-18T06:19:46.467Z,13.47
2022-10-18T06:22:55.183Z,13.52
2022-10-18T06:26:03.050Z,13.58
2022-10-18T06:29:11.555Z,13.67
2022-10-18T06:32:20.244Z,13.74
2022-10-18T06:35:25.820Z,13.82
2022-10-18T06:38:33.259Z,13.88
2022-10-18T06:41:38.863Z,13.98
2022-10-18T06:45:01.233Z,14.07
2022-10-18T06:48:07.935Z,14.17
2022-10-18T06:51:15.415Z,14.28
2022-10-18T06:54:21.003Z,14.37
2022-10-18T06:57:27.536Z,14.45
2022-10-18T07:00:35.890Z,14.52
2022-10-18T07:03:42.905Z,14.57
2022-10-18T07:06:48.450Z,14.61
2022-10-18T07:09:54.919Z,14.68
2022-10-18T07:13:20.089Z,14.74
2022-10-18T07:16:30.279Z,14.81
2022-10-18T07:19:35.835Z,14.87
2022-10-18T07:22:42.244Z,14.93
2022-10-18T07:25:47.789Z,14.99
2022-10-18T07:28:58.092Z,15.06
2022-10-18T07:32:06.655Z,15.13
2022-10-18T07:35:13.238Z,15.18
2022-10-18T07:38:18.894Z,15.25
2022-10-18T07:41:25.637Z,15.33
2022-10-18T07:44:31.519Z,15.41
2022-10-18T07:47:41.153Z,15.49
2022-10-18T07:50:47.025Z,15.57
2022-10-18T07:53:53.628Z,15.62
2022-10-18T07:56:59.174Z,15.65
2022-10-18T08:00:06.812Z,15.71
2022-10-18T08:03:19.843Z,15.78
2022-10-18T08:06:26.486Z,15.81
2022-10-18T08:09:32.083Z,15.85
2022-10-18T08:12:38.533Z,15.92
2022-10-18T08:15:44.116Z,16.02
2022-10-18T08:18:53.711Z,16.07
2022-10-18T08:28:53.980Z,16.19
2022-10-18T08:32:10.776Z,16.23
2022-10-18T08:35:20.087Z,16.30
2022-10-18T08:38:25.777Z,16.34
2022-10-18T08:41:57.605Z,16.40
2022-10-18T08:45:12.589Z,16.45
2022-10-18T08:48:32.148Z,16.50
2022-10-18T08:51:45.577Z,16.58
2022-10-18T08:55:03.387Z,16.65
2022-10-18T08:58:20.071Z,16.70
2022-10-18T09:01:35.514Z,16.76
2022-10-18T09:04:51.497Z,16.83
2022-10-18T09:08:34.063Z,16.86
2022-10-18T09:11:50.462Z,16.89
2022-10-18T09:15:12.205Z,16.97
2022-10-18T09:18:32.795Z,17.05
2022-10-18T09:21:50.505Z,17.07
2022-10-18T09:25:09.214Z,17.12
2022-10-18T09:28:27.310Z,17.17
2022-10-18T09:31:45.702Z,17.21
2022-10-18T09:34:56.487Z,17.22
2022-10-18T09:38:07.683Z,17.31
2022-10-18T09:41:21.371Z,17.39
2022-10-18T09:44:30.482Z,17.45
2022-10-18T09:47:42.162Z,17.47
2022-10-18T09:50:53.870Z,17.49
2022-10-18T09:54:12.375Z,17.55
2022-10-18T09:57:28.629Z,17.62
2022-10-18T10:00:42.249Z,17.69
2022-10-18T10:03:48.178Z,17.79
2022-10-18T10:06:55.689Z,17.88
2022-10-18T10:10:03.604Z,17.94
2022-10-18T10:13:22.541Z,17.99
2022-10-18T10:16:30.177Z,18.01
2022-10-18T10:19:40.828Z,18.05
2022-10-18T10:22:49.528Z,18.11
2022-10-18T10:25:58.008Z,18.17
2022-10-18T10:29:13.219Z,18.22
2022-10-18T10:32:28.910Z,18.26
2022-10-18T10:35:54.053Z,18.35
2022-10-18T10:39:13.962Z,18.41
2022-10-18T10:42:19.768Z,18.47
2022-10-18T10:45:31.237Z,18.58
2022-10-18T10:48:48.443Z,18.68
2022-10-18T10:52:08.463Z,18.77
2022-10-18T10:55:35.473Z,18.84
2022-10-18T10:58:43.715Z,18.91
2022-10-18T11:01:53.323Z,18.98
2022-10-18T11:05:18.668Z,18.98
2022-10-18T11:08:27.773Z,18.98
2022-10-18T11:11:38.137Z,19.01
2022-10-18T11:14:48.942Z,19.05
2022-10-18T11:18:08.194Z,19.10
2022-10-18T11:21:18.108Z,19.14
2022-10-18T11:24:26.211Z,19.16
2022-10-18T11:27:38.207Z,19.21
2022-10-18T11:30:59.071Z,19.24
2022-10-18T11:34:21.930Z,19.28
2022-10-18T11:37:43.826Z,19.32
2022-10-18T11:41:07.477Z,19.35
2022-10-18T11:44:26.569Z,19.41
2022-10-18T11:47:41.027Z,19.47
2022-10-18T11:50:59.033Z,19.55
2022-10-18T11:54:25.843Z,19.59
2022-10-18T11:57:53.845Z,19.57
2022-10-18T12:01:06.315Z,19.58
2022-10-18T12:04:18.050Z,19.58
2022-10-18T12:07:31.625Z,19.67
2022-10-18T12:10:53.027Z,19.70
2022-10-18T12:14:17.210Z,19.72
2022-10-18T12:17:42.710Z,19.72
2022-10-18T12:20:52.651Z,19.75
2022-10-18T12:24:06.336Z,19.80
2022-10-18T12:27:16.499Z,19.87
2022-10-18T12:30:32.081Z,19.91
2022-10-18T12:33:41.783Z,19.93
2022-10-18T12:37:15.468Z,19.97
2022-10-18T12:40:28.951Z,19.97
2022-10-18T12:43:39.499Z,20.01
2022-10-18T12:46:50.569Z,20.05
2022-10-18T12:50:02.889Z,20.10
2022-10-18T12:53:20.912Z,20.11
2022-10-18T12:56:42.777Z,20.15
2022-10-18T12:59:48.478Z,20.13
2022-10-18T13:03:43.113Z,20.21
2022-10-18T13:07:22.058Z,20.24
2022-10-18T13:10:38.999Z,20.22
2022-10-18T13:14:06.865Z,20.21
2022-10-18T13:17:32.000Z,20.21
2022-10-18T13:20:47.047Z,20.26
2022-10-18T13:24:12.359Z,20.32
2022-10-18T13:27:35.817Z,20.36
2022-10-18T13:30:51.503Z,20.37
2022-10-18T13:33:57.250Z,20.34
2022-10-18T13:37:09.066Z,20.37
2022-10-18T13:40:25.221Z,20.38
2022-10-18T13:44:23.656Z,20.39
2022-10-18T13:47:37.735Z,20.26
2022-10-18T13:50:46.252Z,20.26
2022-10-18T13:54:06.833Z,20.23
2022-10-18T13:57:35.507Z,20.23
2022-10-18T14:00:57.910Z,20.23
2022-10-18T14:04:40.954Z,20.21
2022-10-18T14:07:49.311Z,20.15
2022-10-18T14:11:06.500Z,20.15
2022-10-18T14:14:19.700Z,20.14
2022-10-18T14:17:35.045Z,20.13
2022-10-18T14:21:01.436Z,20.11
2022-10-18T14:24:22.163Z,20.07
2022-10-18T14:27:33.677Z,20.04
2022-10-18T14:30:41.601Z,20.03
2022-10-18T14:33:53.729Z,20.01
2022-10-18T14:37:03.102Z,19.94
2022-10-18T14:40:09.479Z,19.90
2022-10-18T14:43:22.656Z,19.86
2022-10-18T14:46:31.243Z,19.81
2022-10-18T14:49:46.722Z,19.76
2022-10-18T14:52:52.916Z,19.68
2022-10-18T14:56:04.317Z,19.59
2022-10-18T14:59:21.611Z,19.53
2022-10-18T15:02:29.550Z,19.46
2022-10-18T15:05:35.234Z,19.42
2022-10-18T15:08:44.122Z,19.37
2022-10-18T15:11:50.618Z,19.31
2022-10-18T15:15:00.500Z,19.24
2022-10-18T15:18:08.580Z,19.12
2022-10-18T15:21:25.031Z,19.04
2022-10-18T15:24:36.397Z,18.97
2022-10-18T15:27:45.411Z,18.88
2022-10-18T15:30:54.061Z,18.80
2022-10-18T15:34:12.896Z,18.74
2022-10-18T15:37:23.282Z,18.66
2022-10-18T15:40:36.816Z,18.56
2022-10-18T15:43:42.468Z,18.48
2022-10-18T15:46:53.165Z,18.43
2022-10-18T15:50:06.975Z,18.34
2022-10-18T15:53:47.515Z,18.25
2022-10-18T15:56:53.243Z,18.16
2022-10-18T16:00:03.808Z,18.11
2022-10-18T16:03:24.087Z,18.08
2022-10-18T16:06:30.860Z,18.04
2022-10-18T16:09:36.529Z,18.01
2022-10-18T16:12:43.500Z,17.99
2022-10-18T16:15:49.305Z,17.95
2022-10-18T16:18:59.435Z,17.91
2022-10-18T16:22:07.224Z,17.87
2022-10-18T16:25:13.996Z,17.83
2022-10-18T16:28:21.399Z,17.77
2022-10-18T16:31:30.221Z,17.72
2022-10-18T16:34:38.847Z,17.70
2022-10-18T16:37:45.336Z,17.65
2022-10-18T16:40:51.683Z,17.62
2022-10-18T16:43:58.219Z,17.59
2022-10-18T16:47:04.082Z,17.56
2022-10-18T16:50:17.311Z,17.55
2022-10-18T16:53:23.990Z,17.56
2022-10-18T16:56:33.429Z,17.57
2022-10-18T16:59:39.092Z,17.57
2022-10-18T17:02:45.820Z,17.58
2022-10-18T17:05:54.650Z,17.58
2022-10-18T17:09:01.220Z,17.54
2022-10-18T17:12:08.695Z,17.53
2022-10-18T17:15:16.026Z,17.52
2022-10-18T17:18:26.540Z,17.51
2022-10-18T17:21:36.649Z,17.53
2022-10-18T17:24:42.290Z,17.53
2022-10-18T17:27:49.571Z,17.56
2022-10-18T17:30:55.170Z,17.60
2022-10-18T17:34:03.872Z,17.59
2022-10-18T17:37:13.790Z,17.61
2022-10-18T17:40:20.625Z,17.62
2022-10-18T17:43:26.725Z,17.65
2022-10-18T17:46:36.881Z,17.64
2022-10-18T17:49:44.856Z,17.65
2022-10-18T17:52:54.215Z,17.63
2022-10-18T17:56:03.671Z,17.64
2022-10-18T17:59:10.204Z,17.65
2022-10-18T18:02:15.815Z,17.61
2022-10-18T18:05:22.284Z,17.58
2022-10-18T18:08:30.999Z,17.59
2022-10-18T18:11:38.614Z,17.56
2022-10-18T18:14:44.196Z,17.57
2022-10-18T18:17:57.201Z,17.52
2022-10-18T18:21:03.430Z,17.47
2022-10-18T18:24:17.928Z,17.45
2022-10-18T18:27:23.627Z,17.41
2022-10-18T18:30:30.558Z,17.36
2022-10-18T18:33:36.631Z,17.31
2022-10-18T18:36:43.526Z,17.29
2022-10-18T18:39:51.975Z,17.27
2022-10-18T18:43:07.133Z,17.23
2022-10-18T18:46:24.691Z,17.17
2022-10-18T18:49:31.664Z,17.15
2022-10-18T18:52:37.317Z,17.10
2022-10-18T18:55:46.606Z,17.06
2022-10-18T18:58:52.489Z,16.96
2022-10-18T19:01:58.983Z,16.64
2022-10-18T19:05:06.307Z,16.32
2022-10-18T19:08:12.826Z,16.06
2022-10-18T19:11:23.922Z,15.84
2022-10-18T19:14:31.285Z,15.63
2022-10-18T19:17:37.289Z,15.48
2022-10-18T19:20:43.801Z,15.30
2022-10-18T19:23:50.426Z,15.15
2022-10-18T19:27:03.373Z,14.98
2022-10-18T19:30:12.259Z,14.84
2022-10-18T19:33:35.568Z,14.72
2022-10-18T19:36:50.083Z,14.60
2022-10-18T19:39:56.866Z,14.55
2022-10-18T19:43:06.528Z,14.52
2022-10-18T19:46:12.993Z,14.49
2022-10-18T19:49:19.601Z,14.46
2022-10-18T19:52:26.055Z,14.40
2022-10-18T19:55:31.657Z,14.40
2022-10-18T19:58:41.116Z,14.37
2022-10-18T20:01:47.474Z,14.32
2022-10-18T20:04:54.456Z,14.26
2022-10-18T20:08:00.349Z,14.21
2022-10-18T20:11:10.595Z,14.16
2022-10-18T20:14:19.300Z,14.10
2022-10-18T20:17:25.736Z,14.06
2022-10-18T20:20:48.996Z,14.01
2022-10-18T20:23:56.093Z,13.95
2022-10-18T20:27:03.305Z,13.87
2022-10-18T20:30:13.662Z,13.78
2022-10-18T20:33:19.235Z,13.69
2022-10-18T20:36:26.123Z,13.60
2022-10-18T20:39:33.680Z,13.51
2022-10-18T20:42:40.211Z,13.46
2022-10-18T20:45:48.835Z,13.42
2022-10-18T20:48:56.229Z,13.37
2022-10-18T20:52:03.315Z,13.30
2022-10-18T20:55:10.724Z,13.28
2022-10-18T20:58:16.385Z,13.25
2022-10-18T21:01:27.435Z,13.23
2022-10-18T21:04:33.208Z,13.19
2022-10-18T21:07:39.739Z,13.16
2022-10-18T21:10:45.305Z,13.13
2022-10-18T21:13:55.527Z,13.11
2022-10-18T21:17:04.213Z,13.10
2022-10-18T21:20:12.212Z,13.10
2022-10-18T21:23:17.936Z,13.13
2022-10-18T21:26:26.179Z,13.16
2022-10-18T21:29:32.474Z,13.17
2022-10-18T21:32:41.653Z,13.18
2022-10-18T21:35:47.234Z,13.17
2022-10-18T21:38:54.694Z,13.13
2022-10-18T21:42:00.334Z,13.08
2022-10-18T21:45:09.615Z,13.00
2022-10-18T21:48:18.181Z,12.97
2022-10-18T21:51:27.759Z,12.93
2022-10-18T21:54:34.492Z,12.90
2022-10-18T21:57:41.041Z,12.88
2022-10-18T22:00:46.735Z,12.87
2022-10-18T22:03:57.975Z,12.87
2022-10-18T22:07:03.530Z,12.84
2022-10-18T22:10:11.240Z,12.85
2022-10-18T22:13:16.818Z,12.85
2022-10-18T22:16:23.280Z,12.87
2022-10-18T22:19:34.757Z,12.90
2022-10-18T22:22:41.219Z,12.94
2022-10-18T22:25:47.072Z,12.97
2022-10-18T22:28:58.691Z,13.01
2022-10-18T22:32:06.082Z,13.03
2022-10-18T22:35:15.379Z,13.04
2022-10-18T22:38:21.271Z,13.05
2022-10-18T22:41:27.742Z,13.06
2022-10-18T22:44:34.361Z,13.03
2022-10-18T22:47:40.907Z,13.01
2022-10-18T22:50:49.300Z,12.98
2022-10-18T22:53:56.399Z,13.01
2022-10-18T22:57:06.181Z,13.04
2022-10-18T23:00:15.244Z,13.03
2022-10-18T23:03:22.061Z,13.02
2022-10-18T23:06:33.334Z,13.07
2022-10-18T23:12:50.293Z,13.22
2022-10-18T23:15:56.455Z,13.25
2022-10-18T23:19:03.108Z,13.27
2022-10-18T23:22:11.436Z,13.24
2022-10-18T23:25:18.133Z,13.20
2022-10-18T23:28:24.027Z,13.19
2022-10-18T23:31:32.536Z,13.13
2022-10-18T23:34:38.123Z,13.20
2022-10-18T23:37:47.465Z,13.22
2022-10-18T23:40:53.015Z,13.20
2022-10-18T23:43:59.521Z,13.17
2022-10-18T23:47:06.577Z,13.19
2022-10-18T23:50:13.525Z,13.16
2022-10-18T23:53:22.406Z,13.16
2022-10-18T23:56:28.797Z,13.12
2022-10-18T23:59:34.711Z,13.08
